Domov               UVHVVR             MKGP            O straneh              
ZDRAVSTVENO VARSTVO RASTLIN
  MREŽA AGROMET. POSTAJ
 ► PROGNOSTIČNA OBVESTILA
AGROMETEOROLOŠKI PODATKI -
ARSO
OBVLADOVANJE TVEGANJ ZARADI
NEUGODNIH VREMENSKIH RAZMER
  ► NARAVNE NESREČE
  ► SUŠA/MOČA
  ► NAMAKANJE
  ► ŽLED (gozdarstvo)
KARTOGRAFSKI PRIKAZI
SPLETNE POVEZAVE
PROJEKTI IN PUBLIKACIJE

AGROMETEOROLOŠKA MREŽA: VREMENSKE POSTAJE IN FENOLOŠKA OPAZOVANJA

Pregled podatkov za lokacijo Bilje FURS, meteorološka postaja 859083

Pregled senzorjev na lokaciji

ID Ime Zadnja
vrednost
Datum
zadnje
spremembe
Tip
senzorja
3958 Temperatura 2 m ( °C) 13,54 °C 24.8.2017 04:30 50YA
3959 Relativna vlaga 2 m (% RH) 99,08 % RH 24.8.2017 04:30 50YA
3963 Omočenost lista (U) 0 U 24.8.2017 04:30 A730WET
3964 Padavine 0.2 mm (mm) 0 mm 24.8.2017 04:30 Rain-O-Matic

Pregled podatkov zadnjih 24 ur

Zap.
št.
Datum in čas Bilje FURS
Omočenost
lista
Padavine
0.2
mm
Relativna
vlaga
2
m
Temperatura
2
m
0 24.8.2017 03:30 0 0 99,08 13,54
1 24.8.2017 03:00 0 0 99,06 13,91
2 24.8.2017 02:30 0 0 99,04 14,12
3 24.8.2017 02:00 0 0 98,72 14,37
4 24.8.2017 01:30 0 0 98,55 14,47
5 24.8.2017 01:00 0 0 97,77 14,6
6 24.8.2017 00:30 0 0 97,32 15,01
7 24.8.2017 00:00 0 0 97,58 15,21
8 23.8.2017 23:30 0 0 96,89 15,16
9 23.8.2017 23:00 0 0 96,48 15,5
10 23.8.2017 22:30 0 0 95,45 15,82
11 23.8.2017 22:00 0 0 94,49 16,31
12 23.8.2017 21:30 0 0 92,12 16,72
13 23.8.2017 21:00 0 0 89,89 17,32
14 23.8.2017 20:30 0 0 86,63 17,99
15 23.8.2017 20:00 0 0 83,07 18,77
16 23.8.2017 19:30 0 0 76,62 20,54
17 23.8.2017 19:00 0 0 65,35 23,1
18 23.8.2017 18:30 0 0 54,53 25,09
19 23.8.2017 18:00 0 0 49,61 26,03
20 23.8.2017 17:30 0 0 47,64 26,55
21 23.8.2017 17:00 0 0 46,82 26,99
22 23.8.2017 16:30 0 0 46,36 27,23
23 23.8.2017 16:00 0 0 48,49 26,1
24 23.8.2017 15:30 0 0 47,41 26,65
25 23.8.2017 15:00 0 0 44,18 27,78
26 23.8.2017 14:30 0 0 43,65 27,9
27 23.8.2017 14:00 0 0 43,41 27,97
28 23.8.2017 13:30 0 0 44,18 27,89
29 23.8.2017 13:00 0 0 43,49 27,82
30 23.8.2017 12:30 0 0 40,71 27,45
31 23.8.2017 12:00 0 0 40,7 27,32
32 23.8.2017 11:30 0 0 41,72 27,26
33 23.8.2017 11:00 0 0 41,87 27,05
34 23.8.2017 10:30 0 0 45,45 26,34
35 23.8.2017 10:00 0 0 51,34 24,43
36 23.8.2017 09:30 0 0 54,47 23,22
37 23.8.2017 09:00 0 0 58,78 21,92
38 23.8.2017 08:30 0 0 65,1 20,5
39 23.8.2017 08:00 0 0 71,79 18,62
40 23.8.2017 07:30 0 0 84,78 15,7
41 23.8.2017 07:00 0 0 94,05 13,77
42 23.8.2017 06:30 0 0 98,91 12,36
43 23.8.2017 06:00 0 0 99,24 11,77
44 23.8.2017 05:30 0 0 99,72 11,72
45 23.8.2017 05:00 0 0 99,44 11,54
© 2011 Ministrstvo za kmetijstvo, gozdarstvo in prehrano. Vse pravice pridržane.